sensor_id;sensor_type;location;lat;lon;timestamp;P1;durP1;ratioP1;P2;durP2;ratioP2
35488;SDS011;21602;55.670;37.578;2023-04-06T00:02:02;6.80;;;3.53;;
35488;SDS011;21602;55.670;37.578;2023-04-06T00:04:28;5.35;;;3.60;;
35488;SDS011;21602;55.670;37.578;2023-04-06T00:06:54;3.75;;;3.03;;
35488;SDS011;21602;55.670;37.578;2023-04-06T00:09:20;3.90;;;3.35;;
35488;SDS011;21602;55.670;37.578;2023-04-06T00:11:46;6.75;;;3.10;;
35488;SDS011;21602;55.670;37.578;2023-04-06T00:14:12;4.82;;;3.15;;
35488;SDS011;21602;55.670;37.578;2023-04-06T00:16:39;5.90;;;3.13;;
35488;SDS011;21602;55.670;37.578;2023-04-06T00:19:05;6.70;;;3.83;;
35488;SDS011;21602;55.670;37.578;2023-04-06T00:21:31;3.83;;;3.20;;
35488;SDS011;21602;55.670;37.578;2023-04-06T00:23:58;7.20;;;3.22;;
35488;SDS011;21602;55.670;37.578;2023-04-06T00:26:23;5.30;;;3.22;;
35488;SDS011;21602;55.670;37.578;2023-04-06T00:28:53;5.47;;;3.70;;
35488;SDS011;21602;55.670;37.578;2023-04-06T00:31:18;6.53;;;3.72;;
35488;SDS011;21602;55.670;37.578;2023-04-06T00:33:44;7.10;;;4.28;;
35488;SDS011;21602;55.670;37.578;2023-04-06T00:36:10;8.10;;;3.22;;
35488;SDS011;21602;55.670;37.578;2023-04-06T00:38:36;5.90;;;3.38;;
35488;SDS011;21602;55.670;37.578;2023-04-06T00:41:03;8.82;;;3.17;;
35488;SDS011;21602;55.670;37.578;2023-04-06T00:43:29;5.80;;;3.88;;
35488;SDS011;21602;55.670;37.578;2023-04-06T00:45:57;6.97;;;3.33;;
35488;SDS011;21602;55.670;37.578;2023-04-06T00:48:24;3.47;;;2.92;;
35488;SDS011;21602;55.670;37.578;2023-04-06T00:50:50;4.07;;;3.28;;
35488;SDS011;21602;55.670;37.578;2023-04-06T00:53:16;5.78;;;3.08;;
35488;SDS011;21602;55.670;37.578;2023-04-06T00:55:43;4.78;;;3.42;;
35488;SDS011;21602;55.670;37.578;2023-04-06T00:58:09;4.88;;;3.42;;
35488;SDS011;21602;55.670;37.578;2023-04-06T01:00:44;4.30;;;3.40;;
35488;SDS011;21602;55.670;37.578;2023-04-06T01:03:15;3.63;;;3.22;;
35488;SDS011;21602;55.670;37.578;2023-04-06T01:05:42;6.65;;;3.65;;
35488;SDS011;21602;55.670;37.578;2023-04-06T01:08:23;4.47;;;3.75;;
35488;SDS011;21602;55.670;37.578;2023-04-06T01:10:55;7.70;;;3.88;;
35488;SDS011;21602;55.670;37.578;2023-04-06T01:13:24;6.90;;;4.13;;
35488;SDS011;21602;55.670;37.578;2023-04-06T01:15:53;5.82;;;3.58;;
35488;SDS011;21602;55.670;37.578;2023-04-06T01:18:27;5.35;;;3.55;;
35488;SDS011;21602;55.670;37.578;2023-04-06T01:21:17;5.78;;;3.78;;
35488;SDS011;21602;55.670;37.578;2023-04-06T01:23:57;7.47;;;3.88;;
35488;SDS011;21602;55.670;37.578;2023-04-06T01:26:30;4.97;;;3.63;;
35488;SDS011;21602;55.670;37.578;2023-04-06T01:28:59;3.70;;;3.28;;
35488;SDS011;21602;55.670;37.578;2023-04-06T01:31:27;7.32;;;4.00;;
35488;SDS011;21602;55.670;37.578;2023-04-06T01:33:54;4.63;;;4.15;;
35488;SDS011;21602;55.670;37.578;2023-04-06T01:36:23;6.07;;;4.30;;
35488;SDS011;21602;55.670;37.578;2023-04-06T01:38:57;3.80;;;3.40;;
35488;SDS011;21602;55.670;37.578;2023-04-06T01:41:30;5.97;;;3.65;;
35488;SDS011;21602;55.670;37.578;2023-04-06T01:43:58;4.95;;;3.42;;
35488;SDS011;21602;55.670;37.578;2023-04-06T01:46:28;5.03;;;3.40;;
35488;SDS011;21602;55.670;37.578;2023-04-06T01:48:54;7.38;;;4.00;;
35488;SDS011;21602;55.670;37.578;2023-04-06T01:51:40;4.38;;;3.90;;
35488;SDS011;21602;55.670;37.578;2023-04-06T01:54:10;6.78;;;4.35;;
35488;SDS011;21602;55.670;37.578;2023-04-06T01:56:51;4.18;;;3.53;;
35488;SDS011;21602;55.670;37.578;2023-04-06T01:59:26;8.27;;;3.70;;
35488;SDS011;21602;55.670;37.578;2023-04-06T02:01:52;5.32;;;4.00;;
35488;SDS011;21602;55.670;37.578;2023-04-06T02:04:18;8.50;;;4.20;;
35488;SDS011;21602;55.670;37.578;2023-04-06T02:06:47;7.65;;;4.03;;
35488;SDS011;21602;55.670;37.578;2023-04-06T02:09:17;6.43;;;4.05;;
35488;SDS011;21602;55.670;37.578;2023-04-06T02:11:43;4.70;;;4.00;;
35488;SDS011;21602;55.670;37.578;2023-04-06T02:14:09;5.50;;;3.97;;
35488;SDS011;21602;55.670;37.578;2023-04-06T02:16:40;6.90;;;4.45;;
35488;SDS011;21602;55.670;37.578;2023-04-06T02:19:06;9.55;;;4.38;;
35488;SDS011;21602;55.670;37.578;2023-04-06T02:21:33;7.10;;;3.88;;
35488;SDS011;21602;55.670;37.578;2023-04-06T02:23:59;8.68;;;4.07;;
35488;SDS011;21602;55.670;37.578;2023-04-06T02:26:27;5.93;;;3.90;;
35488;SDS011;21602;55.670;37.578;2023-04-06T02:28:53;5.90;;;3.30;;
35488;SDS011;21602;55.670;37.578;2023-04-06T02:31:19;5.78;;;4.15;;
35488;SDS011;21602;55.670;37.578;2023-04-06T02:33:45;5.63;;;3.70;;
35488;SDS011;21602;55.670;37.578;2023-04-06T02:36:13;5.90;;;4.20;;
35488;SDS011;21602;55.670;37.578;2023-04-06T02:38:40;6.68;;;4.13;;
35488;SDS011;21602;55.670;37.578;2023-04-06T02:41:06;5.68;;;4.10;;
35488;SDS011;21602;55.670;37.578;2023-04-06T02:43:32;5.72;;;3.70;;
35488;SDS011;21602;55.670;37.578;2023-04-06T02:46:14;8.98;;;4.20;;
35488;SDS011;21602;55.670;37.578;2023-04-06T02:48:40;7.43;;;4.30;;
35488;SDS011;21602;55.670;37.578;2023-04-06T02:51:06;5.55;;;3.85;;
35488;SDS011;21602;55.670;37.578;2023-04-06T02:53:32;4.82;;;3.85;;
35488;SDS011;21602;55.670;37.578;2023-04-06T02:55:58;5.25;;;3.30;;
35488;SDS011;21602;55.670;37.578;2023-04-06T02:58:32;4.75;;;3.88;;
35488;SDS011;21602;55.670;37.578;2023-04-06T03:00:58;8.15;;;4.07;;
35488;SDS011;21602;55.670;37.578;2023-04-06T03:03:24;4.45;;;3.72;;
35488;SDS011;21602;55.670;37.578;2023-04-06T03:05:50;7.05;;;3.80;;
35488;SDS011;21602;55.670;37.578;2023-04-06T03:08:24;6.20;;;3.80;;
35488;SDS011;21602;55.670;37.578;2023-04-06T03:10:50;4.43;;;3.70;;
35488;SDS011;21602;55.670;37.578;2023-04-06T03:13:17;7.65;;;3.85;;
35488;SDS011;21602;55.670;37.578;2023-04-06T03:15:55;4.72;;;3.50;;
35488;SDS011;21602;55.670;37.578;2023-04-06T03:18:22;4.97;;;3.67;;
35488;SDS011;21602;55.670;37.578;2023-04-06T03:20:51;5.63;;;3.88;;
35488;SDS011;21602;55.670;37.578;2023-04-06T03:23:25;3.95;;;3.40;;
35488;SDS011;21602;55.670;37.578;2023-04-06T03:25:56;5.55;;;3.75;;
35488;SDS011;21602;55.670;37.578;2023-04-06T03:28:22;7.25;;;4.32;;
35488;SDS011;21602;55.670;37.578;2023-04-06T03:30:53;5.93;;;4.30;;
35488;SDS011;21602;55.670;37.578;2023-04-06T03:33:34;5.43;;;4.10;;
35488;SDS011;21602;55.670;37.578;2023-04-06T03:36:00;6.30;;;4.10;;
35488;SDS011;21602;55.670;37.578;2023-04-06T03:38:27;7.80;;;3.50;;
35488;SDS011;21602;55.670;37.578;2023-04-06T03:40:54;7.47;;;3.88;;
35488;SDS011;21602;55.670;37.578;2023-04-06T03:43:24;6.15;;;4.20;;
35488;SDS011;21602;55.670;37.578;2023-04-06T03:45:49;6.22;;;4.53;;
35488;SDS011;21602;55.670;37.578;2023-04-06T03:48:16;6.47;;;3.80;;
35488;SDS011;21602;55.670;37.578;2023-04-06T03:50:42;5.70;;;3.67;;
35488;SDS011;21602;55.670;37.578;2023-04-06T03:53:07;7.97;;;4.13;;
35488;SDS011;21602;55.670;37.578;2023-04-06T03:55:34;5.70;;;3.92;;
35488;SDS011;21602;55.670;37.578;2023-04-06T03:58:00;6.60;;;3.50;;
35488;SDS011;21602;55.670;37.578;2023-04-06T04:00:26;8.00;;;3.75;;
35488;SDS011;21602;55.670;37.578;2023-04-06T04:02:54;12.00;;;3.60;;
35488;SDS011;21602;55.670;37.578;2023-04-06T04:05:20;4.40;;;3.50;;
35488;SDS011;21602;55.670;37.578;2023-04-06T04:07:51;5.82;;;3.42;;
35488;SDS011;21602;55.670;37.578;2023-04-06T04:10:21;6.82;;;4.28;;
35488;SDS011;21602;55.670;37.578;2023-04-06T04:12:47;4.78;;;3.10;;
35488;SDS011;21602;55.670;37.578;2023-04-06T04:15:13;6.57;;;3.63;;
35488;SDS011;21602;55.670;37.578;2023-04-06T04:17:39;8.27;;;3.50;;
35488;SDS011;21602;55.670;37.578;2023-04-06T04:20:05;6.03;;;3.10;;
35488;SDS011;21602;55.670;37.578;2023-04-06T04:22:31;5.80;;;3.38;;
35488;SDS011;21602;55.670;37.578;2023-04-06T04:24:59;5.78;;;3.20;;
35488;SDS011;21602;55.670;37.578;2023-04-06T04:29:53;5.70;;;3.33;;
35488;SDS011;21602;55.670;37.578;2023-04-06T04:32:19;13.45;;;3.67;;
35488;SDS011;21602;55.670;37.578;2023-04-06T04:34:47;4.20;;;2.85;;
35488;SDS011;21602;55.670;37.578;2023-04-06T04:37:23;11.82;;;3.75;;
35488;SDS011;21602;55.670;37.578;2023-04-06T04:39:53;7.18;;;3.80;;
35488;SDS011;21602;55.670;37.578;2023-04-06T04:42:19;7.13;;;3.63;;
35488;SDS011;21602;55.670;37.578;2023-04-06T04:44:49;9.50;;;4.22;;
35488;SDS011;21602;55.670;37.578;2023-04-06T04:47:25;7.43;;;3.47;;
35488;SDS011;21602;55.670;37.578;2023-04-06T04:49:51;7.95;;;4.38;;
35488;SDS011;21602;55.670;37.578;2023-04-06T04:52:21;6.93;;;3.38;;
35488;SDS011;21602;55.670;37.578;2023-04-06T04:54:56;9.10;;;3.75;;
35488;SDS011;21602;55.670;37.578;2023-04-06T04:57:26;7.60;;;3.38;;
35488;SDS011;21602;55.670;37.578;2023-04-06T04:59:54;6.45;;;3.88;;
35488;SDS011;21602;55.670;37.578;2023-04-06T05:02:21;9.38;;;4.63;;
35488;SDS011;21602;55.670;37.578;2023-04-06T05:04:59;5.47;;;3.30;;
35488;SDS011;21602;55.670;37.578;2023-04-06T05:07:28;9.77;;;3.90;;
35488;SDS011;21602;55.670;37.578;2023-04-06T05:09:57;5.88;;;3.58;;
35488;SDS011;21602;55.670;37.578;2023-04-06T05:12:26;10.27;;;3.80;;
35488;SDS011;21602;55.670;37.578;2023-04-06T05:15:07;6.40;;;3.80;;
35488;SDS011;21602;55.670;37.578;2023-04-06T05:17:35;4.63;;;3.42;;
35488;SDS011;21602;55.670;37.578;2023-04-06T05:20:05;8.40;;;3.78;;
35488;SDS011;21602;55.670;37.578;2023-04-06T05:22:38;8.07;;;4.78;;
35488;SDS011;21602;55.670;37.578;2023-04-06T05:25:08;8.68;;;3.63;;
35488;SDS011;21602;55.670;37.578;2023-04-06T05:27:34;8.52;;;3.80;;
35488;SDS011;21602;55.670;37.578;2023-04-06T05:30:05;18.70;;;4.53;;
35488;SDS011;21602;55.670;37.578;2023-04-06T05:32:38;14.27;;;4.63;;
35488;SDS011;21602;55.670;37.578;2023-04-06T05:35:04;8.40;;;4.13;;
35488;SDS011;21602;55.670;37.578;2023-04-06T05:37:30;9.60;;;3.40;;
35488;SDS011;21602;55.670;37.578;2023-04-06T05:39:57;9.75;;;3.17;;
35488;SDS011;21602;55.670;37.578;2023-04-06T05:42:24;8.95;;;3.25;;
35488;SDS011;21602;55.670;37.578;2023-04-06T05:44:52;9.27;;;3.42;;
35488;SDS011;21602;55.670;37.578;2023-04-06T05:47:19;5.97;;;3.50;;
35488;SDS011;21602;55.670;37.578;2023-04-06T05:49:50;6.40;;;3.00;;
35488;SDS011;21602;55.670;37.578;2023-04-06T05:52:31;11.23;;;5.13;;
35488;SDS011;21602;55.670;37.578;2023-04-06T05:54:59;8.13;;;4.10;;
35488;SDS011;21602;55.670;37.578;2023-04-06T05:57:26;5.47;;;2.97;;
35488;SDS011;21602;55.670;37.578;2023-04-06T05:59:53;7.85;;;3.53;;
35488;SDS011;21602;55.670;37.578;2023-04-06T06:02:20;7.70;;;3.50;;
35488;SDS011;21602;55.670;37.578;2023-04-06T06:04:50;6.75;;;4.10;;
35488;SDS011;21602;55.670;37.578;2023-04-06T06:07:17;7.72;;;3.78;;
35488;SDS011;21602;55.670;37.578;2023-04-06T06:09:51;12.35;;;6.85;;
35488;SDS011;21602;55.670;37.578;2023-04-06T06:12:25;21.58;;;4.28;;
35488;SDS011;21602;55.670;37.578;2023-04-06T06:14:51;11.48;;;4.30;;
35488;SDS011;21602;55.670;37.578;2023-04-06T06:17:18;9.15;;;3.60;;
35488;SDS011;21602;55.670;37.578;2023-04-06T06:19:46;7.82;;;3.38;;
35488;SDS011;21602;55.670;37.578;2023-04-06T06:22:12;10.15;;;3.80;;
35488;SDS011;21602;55.670;37.578;2023-04-06T06:24:41;8.35;;;4.50;;
35488;SDS011;21602;55.670;37.578;2023-04-06T06:27:08;11.55;;;3.53;;
35488;SDS011;21602;55.670;37.578;2023-04-06T06:29:35;11.55;;;3.97;;
35488;SDS011;21602;55.670;37.578;2023-04-06T06:32:01;12.95;;;4.55;;
35488;SDS011;21602;55.670;37.578;2023-04-06T06:34:27;18.50;;;4.20;;
35488;SDS011;21602;55.670;37.578;2023-04-06T06:36:56;8.57;;;4.32;;
35488;SDS011;21602;55.670;37.578;2023-04-06T06:39:22;10.18;;;3.90;;
35488;SDS011;21602;55.670;37.578;2023-04-06T06:41:49;8.23;;;3.40;;
35488;SDS011;21602;55.670;37.578;2023-04-06T06:44:16;21.60;;;4.90;;
35488;SDS011;21602;55.670;37.578;2023-04-06T06:46:42;6.47;;;3.50;;
35488;SDS011;21602;55.670;37.578;2023-04-06T06:49:08;14.27;;;3.65;;
35488;SDS011;21602;55.670;37.578;2023-04-06T06:51:34;14.57;;;3.85;;
35488;SDS011;21602;55.670;37.578;2023-04-06T06:54:00;17.33;;;4.35;;
35488;SDS011;21602;55.670;37.578;2023-04-06T06:56:26;22.00;;;4.10;;
35488;SDS011;21602;55.670;37.578;2023-04-06T06:58:54;12.32;;;3.38;;
35488;SDS011;21602;55.670;37.578;2023-04-06T07:01:20;10.80;;;3.55;;
35488;SDS011;21602;55.670;37.578;2023-04-06T07:03:46;7.07;;;3.60;;
35488;SDS011;21602;55.670;37.578;2023-04-06T07:06:12;12.73;;;3.58;;
35488;SDS011;21602;55.670;37.578;2023-04-06T07:08:39;8.25;;;4.10;;
35488;SDS011;21602;55.670;37.578;2023-04-06T07:11:05;5.50;;;3.00;;
35488;SDS011;21602;55.670;37.578;2023-04-06T07:13:31;6.07;;;3.88;;
35488;SDS011;21602;55.670;37.578;2023-04-06T07:15:59;6.77;;;3.43;;
35488;SDS011;21602;55.670;37.578;2023-04-06T07:18:27;9.73;;;3.92;;
35488;SDS011;21602;55.670;37.578;2023-04-06T07:20:53;9.10;;;3.78;;
35488;SDS011;21602;55.670;37.578;2023-04-06T07:23:19;6.28;;;3.90;;
35488;SDS011;21602;55.670;37.578;2023-04-06T07:25:44;20.95;;;3.90;;
35488;SDS011;21602;55.670;37.578;2023-04-06T07:28:10;13.75;;;3.70;;
35488;SDS011;21602;55.670;37.578;2023-04-06T07:30:37;10.20;;;3.22;;
35488;SDS011;21602;55.670;37.578;2023-04-06T07:33:04;11.32;;;3.55;;
35488;SDS011;21602;55.670;37.578;2023-04-06T07:35:31;25.08;;;3.78;;
35488;SDS011;21602;55.670;37.578;2023-04-06T07:37:58;6.28;;;2.95;;
35488;SDS011;21602;55.670;37.578;2023-04-06T07:40:24;8.02;;;3.63;;
35488;SDS011;21602;55.670;37.578;2023-04-06T07:42:52;9.43;;;3.50;;
35488;SDS011;21602;55.670;37.578;2023-04-06T07:45:18;9.18;;;3.92;;
35488;SDS011;21602;55.670;37.578;2023-04-06T07:47:45;17.67;;;3.67;;
35488;SDS011;21602;55.670;37.578;2023-04-06T07:50:11;10.70;;;3.28;;
35488;SDS011;21602;55.670;37.578;2023-04-06T07:52:39;18.50;;;5.73;;
35488;SDS011;21602;55.670;37.578;2023-04-06T07:55:05;12.15;;;3.33;;
35488;SDS011;21602;55.670;37.578;2023-04-06T07:57:35;14.23;;;3.72;;
35488;SDS011;21602;55.670;37.578;2023-04-06T08:00:00;9.98;;;4.65;;
35488;SDS011;21602;55.670;37.578;2023-04-06T08:02:29;15.65;;;3.60;;
35488;SDS011;21602;55.670;37.578;2023-04-06T08:04:55;4.38;;;3.03;;
35488;SDS011;21602;55.670;37.578;2023-04-06T08:07:23;7.65;;;2.88;;
35488;SDS011;21602;55.670;37.578;2023-04-06T08:09:49;10.32;;;3.47;;
35488;SDS011;21602;55.670;37.578;2023-04-06T08:12:15;10.18;;;2.75;;
35488;SDS011;21602;55.670;37.578;2023-04-06T08:14:41;10.68;;;2.85;;
35488;SDS011;21602;55.670;37.578;2023-04-06T08:17:07;9.18;;;2.83;;
35488;SDS011;21602;55.670;37.578;2023-04-06T08:19:33;12.10;;;2.92;;
35488;SDS011;21602;55.670;37.578;2023-04-06T08:21:59;18.23;;;3.35;;
35488;SDS011;21602;55.670;37.578;2023-04-06T08:24:25;8.02;;;3.35;;
35488;SDS011;21602;55.670;37.578;2023-04-06T08:26:52;7.28;;;2.47;;
35488;SDS011;21602;55.670;37.578;2023-04-06T08:29:18;7.63;;;2.83;;
35488;SDS011;21602;55.670;37.578;2023-04-06T08:31:44;6.25;;;2.55;;
35488;SDS011;21602;55.670;37.578;2023-04-06T08:34:10;6.43;;;2.92;;
35488;SDS011;21602;55.670;37.578;2023-04-06T08:36:39;20.67;;;3.33;;
35488;SDS011;21602;55.670;37.578;2023-04-06T08:39:06;13.50;;;2.30;;
35488;SDS011;21602;55.670;37.578;2023-04-06T08:41:32;6.72;;;2.22;;
35488;SDS011;21602;55.670;37.578;2023-04-06T08:43:59;9.73;;;2.45;;
35488;SDS011;21602;55.670;37.578;2023-04-06T08:46:31;8.68;;;3.15;;
35488;SDS011;21602;55.670;37.578;2023-04-06T08:49:00;13.07;;;2.50;;
35488;SDS011;21602;55.670;37.578;2023-04-06T08:51:28;7.65;;;2.10;;
35488;SDS011;21602;55.670;37.578;2023-04-06T08:53:58;5.15;;;2.13;;
35488;SDS011;21602;55.670;37.578;2023-04-06T08:56:26;12.10;;;2.95;;
35488;SDS011;21602;55.670;37.578;2023-04-06T08:58:53;7.57;;;2.47;;
35488;SDS011;21602;55.670;37.578;2023-04-06T09:01:20;17.95;;;3.33;;
35488;SDS011;21602;55.670;37.578;2023-04-06T09:03:48;20.65;;;2.67;;
35488;SDS011;21602;55.670;37.578;2023-04-06T09:06:16;8.00;;;3.15;;
35488;SDS011;21602;55.670;37.578;2023-04-06T09:08:43;3.15;;;2.03;;
35488;SDS011;21602;55.670;37.578;2023-04-06T09:11:10;11.38;;;2.65;;
35488;SDS011;21602;55.670;37.578;2023-04-06T09:13:46;7.60;;;2.70;;
35488;SDS011;21602;55.670;37.578;2023-04-06T09:16:16;10.07;;;2.95;;
35488;SDS011;21602;55.670;37.578;2023-04-06T09:18:43;10.43;;;2.53;;
35488;SDS011;21602;55.670;37.578;2023-04-06T09:21:09;12.63;;;3.17;;
35488;SDS011;21602;55.670;37.578;2023-04-06T09:23:36;23.02;;;2.67;;
35488;SDS011;21602;55.670;37.578;2023-04-06T09:26:12;8.30;;;2.50;;
35488;SDS011;21602;55.670;37.578;2023-04-06T09:28:56;10.35;;;2.63;;
35488;SDS011;21602;55.670;37.578;2023-04-06T09:31:27;10.73;;;2.35;;
35488;SDS011;21602;55.670;37.578;2023-04-06T09:33:54;10.13;;;2.40;;
35488;SDS011;21602;55.670;37.578;2023-04-06T09:36:31;6.50;;;2.55;;
35488;SDS011;21602;55.670;37.578;2023-04-06T09:39:02;10.43;;;2.53;;
35488;SDS011;21602;55.670;37.578;2023-04-06T09:41:33;18.10;;;3.40;;
35488;SDS011;21602;55.670;37.578;2023-04-06T09:44:04;15.43;;;3.92;;
35488;SDS011;21602;55.670;37.578;2023-04-06T09:46:34;15.85;;;3.17;;
35488;SDS011;21602;55.670;37.578;2023-04-06T09:49:03;10.75;;;3.53;;
35488;SDS011;21602;55.670;37.578;2023-04-06T09:51:51;9.05;;;2.72;;
35488;SDS011;21602;55.670;37.578;2023-04-06T09:54:21;13.45;;;3.10;;
35488;SDS011;21602;55.670;37.578;2023-04-06T09:56:54;20.45;;;2.67;;
35488;SDS011;21602;55.670;37.578;2023-04-06T10:05:27;7.78;;;2.38;;
35488;SDS011;21602;55.670;37.578;2023-04-06T10:08:10;13.93;;;2.75;;
35488;SDS011;21602;55.670;37.578;2023-04-06T10:10:37;13.95;;;2.30;;
35488;SDS011;21602;55.670;37.578;2023-04-06T10:13:03;5.70;;;2.25;;
35488;SDS011;21602;55.670;37.578;2023-04-06T10:15:30;13.93;;;2.50;;
35488;SDS011;21602;55.670;37.578;2023-04-06T10:17:57;9.38;;;2.40;;
35488;SDS011;21602;55.670;37.578;2023-04-06T10:20:42;6.90;;;2.70;;
35488;SDS011;21602;55.670;37.578;2023-04-06T10:23:23;24.38;;;3.42;;
35488;SDS011;21602;55.670;37.578;2023-04-06T10:25:56;9.82;;;2.83;;
35488;SDS011;21602;55.670;37.578;2023-04-06T10:28:23;8.90;;;2.35;;
35488;SDS011;21602;55.670;37.578;2023-04-06T10:30:56;10.27;;;2.70;;
35488;SDS011;21602;55.670;37.578;2023-04-06T10:33:24;5.45;;;2.17;;
35488;SDS011;21602;55.670;37.578;2023-04-06T10:35:50;9.52;;;2.20;;
35488;SDS011;21602;55.670;37.578;2023-04-06T10:38:16;10.70;;;2.20;;
35488;SDS011;21602;55.670;37.578;2023-04-06T10:40:46;7.88;;;2.25;;
35488;SDS011;21602;55.670;37.578;2023-04-06T10:43:18;12.18;;;2.50;;
35488;SDS011;21602;55.670;37.578;2023-04-06T10:45:54;8.57;;;2.45;;
35488;SDS011;21602;55.670;37.578;2023-04-06T10:48:22;7.78;;;2.17;;
35488;SDS011;21602;55.670;37.578;2023-04-06T10:50:52;8.93;;;2.55;;
35488;SDS011;21602;55.670;37.578;2023-04-06T10:53:22;11.60;;;2.33;;
35488;SDS011;21602;55.670;37.578;2023-04-06T10:55:52;7.70;;;2.63;;
35488;SDS011;21602;55.670;37.578;2023-04-06T10:58:25;10.43;;;2.80;;
35488;SDS011;21602;55.670;37.578;2023-04-06T11:00:52;9.02;;;1.95;;
35488;SDS011;21602;55.670;37.578;2023-04-06T11:03:19;7.97;;;2.50;;
35488;SDS011;21602;55.670;37.578;2023-04-06T11:05:49;5.72;;;2.67;;
35488;SDS011;21602;55.670;37.578;2023-04-06T11:08:32;13.50;;;2.50;;
35488;SDS011;21602;55.670;37.578;2023-04-06T11:16:12;5.90;;;1.70;;
35488;SDS011;21602;55.670;37.578;2023-04-06T11:18:46;10.65;;;2.45;;
35488;SDS011;21602;55.670;37.578;2023-04-06T11:21:16;9.10;;;2.45;;
35488;SDS011;21602;55.670;37.578;2023-04-06T11:23:42;10.63;;;2.50;;
35488;SDS011;21602;55.670;37.578;2023-04-06T11:26:11;8.60;;;2.42;;
35488;SDS011;21602;55.670;37.578;2023-04-06T11:28:40;6.88;;;1.75;;
35488;SDS011;21602;55.670;37.578;2023-04-06T11:33:35;11.18;;;2.15;;
35488;SDS011;21602;55.670;37.578;2023-04-06T11:36:02;6.97;;;1.92;;
35488;SDS011;21602;55.670;37.578;2023-04-06T11:38:29;13.18;;;2.55;;
35488;SDS011;21602;55.670;37.578;2023-04-06T11:40:55;14.05;;;2.78;;
35488;SDS011;21602;55.670;37.578;2023-04-06T11:43:28;11.65;;;2.92;;
35488;SDS011;21602;55.670;37.578;2023-04-06T11:46:03;7.32;;;2.30;;
35488;SDS011;21602;55.670;37.578;2023-04-06T11:48:30;8.05;;;2.78;;
35488;SDS011;21602;55.670;37.578;2023-04-06T11:50:57;7.53;;;2.22;;
35488;SDS011;21602;55.670;37.578;2023-04-06T11:53:29;9.63;;;3.05;;
35488;SDS011;21602;55.670;37.578;2023-04-06T11:55:55;13.25;;;2.53;;
35488;SDS011;21602;55.670;37.578;2023-04-06T11:58:22;7.53;;;2.20;;
35488;SDS011;21602;55.670;37.578;2023-04-06T12:00:47;4.60;;;2.05;;
35488;SDS011;21602;55.670;37.578;2023-04-06T12:03:16;12.50;;;2.55;;
35488;SDS011;21602;55.670;37.578;2023-04-06T12:05:43;4.82;;;1.95;;
35488;SDS011;21602;55.670;37.578;2023-04-06T12:08:09;7.40;;;2.47;;
35488;SDS011;21602;55.670;37.578;2023-04-06T12:10:35;5.32;;;2.00;;
35488;SDS011;21602;55.670;37.578;2023-04-06T12:13:01;7.97;;;2.20;;
35488;SDS011;21602;55.670;37.578;2023-04-06T12:15:27;8.60;;;2.65;;
35488;SDS011;21602;55.670;37.578;2023-04-06T12:17:52;17.65;;;2.70;;
35488;SDS011;21602;55.670;37.578;2023-04-06T12:20:18;8.10;;;2.25;;
35488;SDS011;21602;55.670;37.578;2023-04-06T12:22:44;10.82;;;2.53;;
35488;SDS011;21602;55.670;37.578;2023-04-06T12:25:10;7.38;;;2.08;;
35488;SDS011;21602;55.670;37.578;2023-04-06T12:27:37;8.48;;;2.17;;
35488;SDS011;21602;55.670;37.578;2023-04-06T12:30:04;4.63;;;1.67;;
35488;SDS011;21602;55.670;37.578;2023-04-06T12:32:30;9.98;;;3.20;;
35488;SDS011;21602;55.670;37.578;2023-04-06T12:34:56;11.23;;;2.45;;
35488;SDS011;21602;55.670;37.578;2023-04-06T12:37:22;6.90;;;1.90;;
35488;SDS011;21602;55.670;37.578;2023-04-06T12:39:48;8.82;;;2.85;;
35488;SDS011;21602;55.670;37.578;2023-04-06T12:42:20;15.32;;;2.60;;
35488;SDS011;21602;55.670;37.578;2023-04-06T12:44:46;17.02;;;2.50;;
35488;SDS011;21602;55.670;37.578;2023-04-06T12:47:14;4.68;;;1.90;;
35488;SDS011;21602;55.670;37.578;2023-04-06T12:49:41;9.65;;;2.35;;
35488;SDS011;21602;55.670;37.578;2023-04-06T12:52:08;7.63;;;2.53;;
35488;SDS011;21602;55.670;37.578;2023-04-06T12:54:33;7.07;;;2.08;;
35488;SDS011;21602;55.670;37.578;2023-04-06T12:59:28;8.60;;;2.50;;
35488;SDS011;21602;55.670;37.578;2023-04-06T13:01:59;5.10;;;2.13;;
35488;SDS011;21602;55.670;37.578;2023-04-06T13:04:25;3.72;;;2.00;;
35488;SDS011;21602;55.670;37.578;2023-04-06T13:06:54;4.88;;;1.60;;
35488;SDS011;21602;55.670;37.578;2023-04-06T13:09:20;6.47;;;2.00;;
35488;SDS011;21602;55.670;37.578;2023-04-06T13:11:46;3.35;;;2.08;;
35488;SDS011;21602;55.670;37.578;2023-04-06T13:14:12;7.60;;;2.13;;
35488;SDS011;21602;55.670;37.578;2023-04-06T13:16:38;9.43;;;1.90;;
35488;SDS011;21602;55.670;37.578;2023-04-06T13:19:04;7.53;;;2.17;;
35488;SDS011;21602;55.670;37.578;2023-04-06T13:21:29;15.70;;;2.40;;
35488;SDS011;21602;55.670;37.578;2023-04-06T13:23:55;5.03;;;2.45;;
35488;SDS011;21602;55.670;37.578;2023-04-06T13:26:21;8.63;;;1.80;;
35488;SDS011;21602;55.670;37.578;2023-04-06T13:28:47;6.22;;;1.80;;
35488;SDS011;21602;55.670;37.578;2023-04-06T13:31:14;3.78;;;2.00;;
35488;SDS011;21602;55.670;37.578;2023-04-06T13:33:40;4.90;;;1.98;;
35488;SDS011;21602;55.670;37.578;2023-04-06T13:36:09;15.10;;;2.47;;
35488;SDS011;21602;55.670;37.578;2023-04-06T13:38:38;3.85;;;1.90;;
35488;SDS011;21602;55.670;37.578;2023-04-06T13:41:04;7.50;;;2.40;;
35488;SDS011;21602;55.670;37.578;2023-04-06T13:43:31;10.93;;;2.17;;
35488;SDS011;21602;55.670;37.578;2023-04-06T13:45:56;6.88;;;2.05;;
35488;SDS011;21602;55.670;37.578;2023-04-06T13:48:25;4.22;;;1.85;;
35488;SDS011;21602;55.670;37.578;2023-04-06T13:50:51;9.38;;;2.15;;
35488;SDS011;21602;55.670;37.578;2023-04-06T13:53:17;4.95;;;2.00;;
35488;SDS011;21602;55.670;37.578;2023-04-06T13:55:43;7.03;;;2.00;;
35488;SDS011;21602;55.670;37.578;2023-04-06T13:58:09;5.93;;;2.10;;
35488;SDS011;21602;55.670;37.578;2023-04-06T14:00:35;4.15;;;2.58;;
35488;SDS011;21602;55.670;37.578;2023-04-06T14:03:02;8.40;;;2.17;;
35488;SDS011;21602;55.670;37.578;2023-04-06T14:05:33;5.20;;;1.52;;
35488;SDS011;21602;55.670;37.578;2023-04-06T14:07:59;12.32;;;1.80;;
35488;SDS011;21602;55.670;37.578;2023-04-06T14:10:26;7.20;;;2.00;;
35488;SDS011;21602;55.670;37.578;2023-04-06T14:12:52;7.43;;;1.95;;
35488;SDS011;21602;55.670;37.578;2023-04-06T14:15:18;5.68;;;1.40;;
35488;SDS011;21602;55.670;37.578;2023-04-06T14:17:44;5.40;;;1.58;;
35488;SDS011;21602;55.670;37.578;2023-04-06T14:20:10;7.22;;;1.58;;
35488;SDS011;21602;55.670;37.578;2023-04-06T14:22:40;7.95;;;1.88;;
35488;SDS011;21602;55.670;37.578;2023-04-06T14:25:08;2.42;;;1.77;;
35488;SDS011;21602;55.670;37.578;2023-04-06T14:27:34;5.43;;;1.30;;
35488;SDS011;21602;55.670;37.578;2023-04-06T14:29:59;5.68;;;1.77;;
35488;SDS011;21602;55.670;37.578;2023-04-06T14:32:26;7.13;;;2.58;;
35488;SDS011;21602;55.670;37.578;2023-04-06T14:34:51;11.23;;;2.47;;
35488;SDS011;21602;55.670;37.578;2023-04-06T14:37:17;5.25;;;2.40;;
35488;SDS011;21602;55.670;37.578;2023-04-06T14:39:43;7.07;;;2.40;;
35488;SDS011;21602;55.670;37.578;2023-04-06T14:42:09;13.70;;;2.40;;
35488;SDS011;21602;55.670;37.578;2023-04-06T14:44:35;4.57;;;2.65;;
35488;SDS011;21602;55.670;37.578;2023-04-06T14:47:02;7.35;;;1.63;;
35488;SDS011;21602;55.670;37.578;2023-04-06T14:49:29;8.55;;;2.50;;
35488;SDS011;21602;55.670;37.578;2023-04-06T14:51:55;6.65;;;2.47;;
35488;SDS011;21602;55.670;37.578;2023-04-06T14:54:21;4.57;;;1.20;;
35488;SDS011;21602;55.670;37.578;2023-04-06T14:56:47;7.15;;;1.67;;